Portada
METAR-TAF:

METAR-TAF

Aeropuertos :

Aeropuerto de Lugano

Lugano, Suiza

latitud: 46-00N, longitud: 008-58E, altitud: 273 m

Observación

El informe se hizo hace 14 minutos, a las 19:50 UTC
Viento 1 kt con dirección variable
Temperatura 7°C
Humedad 76%
Presión 1028 hPa
Visibilidad 10 km o más
sin nubes por debajo de 1500 m y sin presencia de cumulonimbus.

METAR: LSZA 031950Z AUTO VRB01KT CAVOK 07/03 Q1028

Hora: 21:04 (20:04 UTC)

Pronóstico

El informe se hizo hace 5 horas y 39 minutos, a las 14:25 UTC
Pronóstico válido del 03 a las 15 UTC al 03 a las 24 UTC
Viento 2 kt con dirección variable
Visibilidad 10 km o más
sin nubes por debajo de 1500 m y sin presencia de cumulonimbus.

TAF: LSZA 031425Z 0315/0324 VRB02KT CAVOK

Observaciones y pronósticos meteorológicos de más de 4000 aeropuertos (mensajes METAR y TAF).

Los puntos amarillos y rojos representan las estaciones disponibles.

Ponga el ratón en el punto deseado para ver el nombre de la estación.

Haga clic para ver las observaciones y los pronósticos meteorológicos.

Para cambiar el mapa : haga clic en los botones verdes con una cruz de color negro para hacer un zoom, en el botón verde con un guión para alejar o en las flechas verdes para mapas adyacentes.


METAR-TAF: